Aérodrome :
LOGIN :

S'inscrire | Disclaimer

   EN    FR    IT 

 










Légende :    VFR   VFR Marginal   IFR   IFR Intensif   IFR Très Intensif
Visi : 
Plafond : 
>= 8 km
>= 3000ft
5 à 8 km
1000 à 3000 ft
1500m à 5 km
500 à 1000 ft
800 à 1500m
200 à 500 ft
< 800m
< 200 ft
Symboles :   Orages  Brouillard  Fortes neiges  Fortes précipitations  Vent > 20 kt
SIGMETs :   Divers  Orages  Givrage  Turbulence  Onde Orograph.  Cendres Volcan.







- Altitude de l'aérodrome : 162 ft
- Code IATA : BOD
- Voir les cartes d'approche


LFBD - Bordeaux / Merignac

DERNIER METAR :
  • 221730Z AUTO 21005KT CAVOK 23/12 Q1015 NOSIG

METARs EXPIRÉS :
  • 221700Z AUTO 21005KT CAVOK 24/11 Q1015 NOSIG
  • 221630Z AUTO 22004KT CAVOK 24/11 Q1015 NOSIG
  • 221600Z AUTO 23004KT 200V260 CAVOK 24/10 Q1015 NOSIG
  • 221530Z AUTO 29004KT 220V020 CAVOK 25/11 Q1015 NOSIG
  • 221500Z AUTO 24006KT 200V270 CAVOK 24/11 Q1015 NOSIG

TAF TAF LFBD
Valide du 22 à 18h jusqu'au 24 à 00h UTC


221700Z 2218/2324 30006KT CAVOK
PROB40
TEMPO 2221/2309 4000 SHRA BKN070TCU
PROB30
TEMPO 2221/2303 -TSRA BKN060CB
BECMG 2301/2303 OVC010
PROB40
TEMPO 2303/2308 BKN005
BECMG 2308/2310 BKN015
BECMG 2310/2312 BKN020 TX22/2315Z TN13/2324Z
ATIS : +33 5 57 92 81 04
Pas de NOTAMs connus pour ce terrain.



MET'MAP, la Météo Aéronautique d'un coup d'oeil ! - Copyright ORBIFLY Décembre 2007 - Disclaimer

ORBIFLY MET'MAP TEAM :

Programmation & Développement : Alexandra Zaïnal
Conception & Développement : Baudouin d'Aumeries
Co-Programmation & Développement : Marc-Olivier Méhu
Soutien technique & logistique : Manuel Goepfert

Contact : metmap@orbifly.com




SOURCES & CREDITS :

   NOAA